Time;durP1;ratioP1;P1;durP2;ratioP2;P2;SDS_P1;SDS_P2;PMS_P1;PMS_P2;Temp;Humidity;BMP_temperature;BMP_pressure;BME280_temperature;BME280_humidity;BME280_pressure;Samples;Min_cycle;Max_cycle;Signal;HPM_P1;HPM_P2
2024/04/09 00:00:21;;;;;;;15.00;4.30;;;19.30;99.90;;;;;;5456533;26;20455;-68
2024/04/09 00:02:47;;;;;;;17.07;4.10;;;19.30;99.70;;;;;;5454968;26;20289;-66
2024/04/09 00:05:13;;;;;;;13.00;3.77;;;19.30;99.40;;;;;;5455850;26;20554;-67
2024/04/09 00:07:39;;;;;;;17.50;3.60;;;19.30;99.10;;;;;;5454847;26;20796;-65
2024/04/09 00:10:09;;;;;;;10.50;3.97;;;19.30;99.00;;;;;;5456496;26;20515;-67
2024/04/09 00:12:36;;;;;;;12.73;3.57;;;19.30;98.80;;;;;;5458569;26;20350;-64
2024/04/09 00:15:07;;;;;;;10.63;3.77;;;19.30;98.90;;;;;;5460356;26;20830;-64
2024/04/09 00:17:44;;;;;;;16.90;4.20;;;19.40;98.30;;;;;;5458988;26;20471;-67
2024/04/09 00:20:18;;;;;;;13.37;3.57;;;19.40;98.50;;;;;;5459998;26;20860;-65
2024/04/09 00:22:45;;;;;;;19.23;3.63;;;19.40;98.30;;;;;;5457897;26;20471;-64
2024/04/09 00:25:12;;;;;;;14.37;4.10;;;19.30;97.70;;;;;;5459738;26;20457;-64
2024/04/09 00:27:39;;;;;;;14.70;4.30;;;19.40;97.60;;;;;;5457723;26;20467;-65
2024/04/09 00:30:06;;;;;;;10.53;3.40;;;19.40;97.40;;;;;;5458347;26;20859;-67
2024/04/09 00:32:33;;;;;;;13.97;3.77;;;19.40;97.70;;;;;;5427751;26;20506;-66
2024/04/09 00:34:59;;;;;;;15.90;3.90;;;19.40;98.20;;;;;;5458316;26;20461;-66
2024/04/09 00:37:24;;;;;;;28.00;3.67;;;19.40;97.80;;;;;;5459607;26;20523;-65
2024/04/09 00:39:52;;;;;;;13.90;3.60;;;19.40;97.70;;;;;;5459315;26;20711;-64
2024/04/09 00:42:17;;;;;;;12.60;3.67;;;19.30;98.20;;;;;;5458737;26;20490;-64
2024/04/09 00:44:44;;;;;;;13.23;3.90;;;19.30;98.00;;;;;;5457587;26;20263;-64
2024/04/09 00:47:14;;;;;;;17.57;3.43;;;19.40;97.20;;;;;;5459007;26;20462;-64
2024/04/09 00:49:40;;;;;;;17.83;4.77;;;19.30;99.70;;;;;;5457979;26;20248;-66
2024/04/09 00:52:06;;;;;;;14.33;4.13;;;19.30;99.90;;;;;;5459310;26;20471;-67
2024/04/09 00:54:32;;;;;;;16.77;4.87;;;19.30;99.40;;;;;;5458824;26;20241;-68
2024/04/09 00:56:58;;;;;;;15.17;3.87;;;19.30;99.10;;;;;;5458390;26;20273;-65
2024/04/09 00:59:24;;;;;;;14.80;3.43;;;19.30;99.40;;;;;;5457909;26;21000;-65
2024/04/09 01:01:50;;;;;;;17.73;4.23;;;19.20;99.90;;;;;;5458214;26;20517;-69
2024/04/09 01:04:15;;;;;;;18.77;4.30;;;19.20;99.90;;;;;;5459194;26;20482;-67
2024/04/09 01:06:42;;;;;;;13.53;3.63;;;19.20;99.80;;;;;;5457856;26;20236;-67
2024/04/09 01:09:08;;;;;;;11.03;3.83;;;19.20;99.90;;;;;;5458429;26;20280;-65
2024/04/09 01:11:34;;;;;;;19.23;4.13;;;19.20;99.90;;;;;;5456812;26;20783;-64
2024/04/09 01:14:00;;;;;;;15.43;3.90;;;19.10;99.90;;;;;;5458731;26;20508;-68
2024/04/09 01:16:25;;;;;;;12.83;4.67;;;19.20;99.50;;;;;;5458508;26;20354;-67
2024/04/09 01:18:51;;;;;;;21.03;4.10;;;19.20;99.40;;;;;;5458742;26;20284;-68
2024/04/09 01:21:17;;;;;;;20.20;4.10;;;19.20;99.50;;;;;;5458987;26;20618;-67
2024/04/09 01:23:42;;;;;;;9.80;3.20;;;19.20;99.70;;;;;;5458612;26;20341;-66
2024/04/09 01:26:09;;;;;;;16.70;4.23;;;19.20;99.90;;;;;;5458344;26;20233;-69
2024/04/09 01:28:39;;;;;;;15.60;4.07;;;19.20;99.90;;;;;;5456506;26;20674;-68
2024/04/09 01:31:05;;;;;;;15.50;4.03;;;19.10;99.90;;;;;;5457792;26;21488;-64
2024/04/09 01:33:31;;;;;;;11.30;3.97;;;19.10;99.90;;;;;;5458443;26;20458;-69
2024/04/09 01:35:56;;;;;;;15.27;4.20;;;19.00;99.90;;;;;;5458151;26;20245;-66
2024/04/09 01:38:22;;;;;;;13.07;4.40;;;19.00;99.90;;;;;;5458488;26;20237;-66
2024/04/09 01:40:48;;;;;;;16.00;4.73;;;18.90;99.90;;;;;;5457729;26;20238;-68
2024/04/09 01:43:14;;;;;;;16.60;4.57;;;18.90;99.90;;;;;;5459682;26;20260;-66
2024/04/09 01:45:41;;;;;;;16.10;5.23;;;18.80;99.90;;;;;;5398325;26;20271;-68
2024/04/09 01:48:07;;;;;;;18.30;5.80;;;18.80;99.90;;;;;;5458422;26;20463;-66
2024/04/09 01:50:37;;;;;;;16.00;5.20;;;18.70;99.90;;;;;;5449648;26;20677;-64
2024/04/09 01:53:03;;;;;;;14.97;4.60;;;18.70;99.90;;;;;;5454461;26;20246;-66
2024/04/09 01:55:29;;;;;;;11.40;4.00;;;18.70;99.90;;;;;;5452703;26;20455;-67
2024/04/09 01:57:55;;;;;;;13.43;4.47;;;18.60;99.90;;;;;;5452661;26;21115;-66
2024/04/09 02:00:21;;;;;;;9.30;4.33;;;18.50;99.90;;;;;;5455092;26;20252;-66
2024/04/09 02:02:52;;;;;;;10.80;4.17;;;18.50;99.90;;;;;;5454199;26;20467;-68
2024/04/09 02:05:19;;;;;;;18.57;5.13;;;18.40;99.90;;;;;;5454482;26;20229;-67
2024/04/09 02:07:46;;;;;;;10.30;4.57;;;18.40;99.90;;;;;;5450879;26;20564;-66
2024/04/09 02:10:12;;;;;;;11.97;4.30;;;18.40;99.90;;;;;;5455393;26;20522;-66
2024/04/09 02:12:40;;;;;;;12.80;4.47;;;18.40;99.90;;;;;;5452348;26;20459;-67
2024/04/09 02:15:07;;;;;;;17.40;4.40;;;18.30;99.90;;;;;;5454517;26;20511;-66
2024/04/09 02:17:32;;;;;;;14.97;4.40;;;18.20;99.90;;;;;;5453749;26;21332;-66
2024/04/09 02:19:59;;;;;;;13.93;4.87;;;18.20;99.90;;;;;;5453509;26;20468;-65
2024/04/09 02:22:28;;;;;;;11.63;4.80;;;18.20;99.90;;;;;;5454045;26;20560;-69
2024/04/09 02:24:54;;;;;;;11.53;4.50;;;18.00;99.90;;;;;;5454808;26;20255;-65
2024/04/09 02:27:21;;;;;;;11.30;4.97;;;18.00;99.90;;;;;;5451623;26;20463;-64
2024/04/09 02:29:47;;;;;;;11.50;4.10;;;17.90;99.90;;;;;;5453107;26;20824;-69
2024/04/09 02:32:12;;;;;;;11.77;4.57;;;17.90;99.90;;;;;;5454031;26;20459;-63
2024/04/09 02:34:38;;;;;;;15.47;4.20;;;17.80;99.90;;;;;;5453660;26;20268;-67
2024/04/09 02:37:04;;;;;;;15.70;4.20;;;17.80;99.90;;;;;;5454333;26;21411;-67
2024/04/09 02:39:31;;;;;;;14.00;4.50;;;17.70;99.90;;;;;;5452517;26;20317;-65
2024/04/09 02:41:57;;;;;;;10.50;4.83;;;17.70;99.90;;;;;;5453638;26;20493;-66
2024/04/09 02:44:24;;;;;;;16.10;5.03;;;17.70;99.90;;;;;;5453859;26;20770;-66
2024/04/09 02:46:52;;;;;;;17.00;4.40;;;17.60;99.90;;;;;;5455539;26;20553;-65
2024/04/09 02:49:18;;;;;;;8.40;4.20;;;17.60;99.90;;;;;;5453764;26;20450;-66
2024/04/09 02:51:43;;;;;;;17.93;4.43;;;17.50;99.90;;;;;;5454132;26;20510;-65
2024/04/09 02:54:09;;;;;;;12.10;3.87;;;17.50;99.90;;;;;;5455748;26;20339;-67
2024/04/09 02:56:35;;;;;;;9.30;4.10;;;17.50;99.90;;;;;;5453217;26;20576;-66
2024/04/09 02:59:01;;;;;;;12.27;5.43;;;17.50;99.90;;;;;;5456980;26;20450;-68
2024/04/09 03:01:27;;;;;;;15.30;5.00;;;17.40;99.90;;;;;;5456433;26;20233;-67
2024/04/09 03:03:53;;;;;;;15.67;4.13;;;17.40;99.90;;;;;;5457707;26;20503;-67
2024/04/09 03:06:18;;;;;;;17.27;5.00;;;17.40;99.90;;;;;;5455968;26;20341;-66
2024/04/09 03:08:44;;;;;;;15.13;4.87;;;17.40;99.90;;;;;;5398777;26;20834;-65
2024/04/09 03:11:14;;;;;;;14.43;4.93;;;17.40;99.90;;;;;;5455844;26;20249;-65
2024/04/09 03:13:41;;;;;;;11.83;4.50;;;17.40;99.90;;;;;;5455567;26;20229;-64
2024/04/09 03:16:13;;;;;;;14.10;5.57;;;17.40;99.90;;;;;;5456667;26;20507;-67
2024/04/09 03:18:39;;;;;;;14.90;4.70;;;17.40;99.90;;;;;;5454955;26;20458;-65
2024/04/09 03:21:05;;;;;;;13.63;4.37;;;17.40;99.90;;;;;;5460855;26;20583;-65
2024/04/09 03:23:31;;;;;;;11.73;4.40;;;17.30;99.90;;;;;;5458592;26;21188;-65
2024/04/09 03:25:57;;;;;;;16.90;5.07;;;17.30;99.90;;;;;;5460547;26;20276;-67
2024/04/09 03:28:23;;;;;;;11.53;4.20;;;17.30;99.90;;;;;;5459685;26;20955;-66
2024/04/09 03:30:59;;;;;;;16.67;3.97;;;17.20;99.90;;;;;;5460097;26;20238;-64
2024/04/09 03:33:25;;;;;;;11.73;4.40;;;17.20;99.90;;;;;;5461179;26;20329;-64
2024/04/09 03:35:56;;;;;;;9.60;4.00;;;17.20;99.90;;;;;;5458756;26;20514;-66
2024/04/09 03:38:22;;;;;;;10.67;4.37;;;17.10;99.90;;;;;;5458558;26;20793;-64
2024/04/09 03:40:56;;;;;;;9.03;4.03;;;17.10;99.90;;;;;;5459656;26;20602;-67
2024/04/09 03:43:22;;;;;;;10.83;5.07;;;17.10;99.90;;;;;;5459648;26;20501;-67
2024/04/09 03:46:11;;;;;;;17.07;4.67;;;17.00;99.90;;;;;;5428443;26;20988;-69
2024/04/09 03:48:37;;;;;;;10.07;4.23;;;17.00;99.90;;;;;;5457600;26;21182;-66
2024/04/09 03:51:04;;;;;;;13.90;4.30;;;17.00;99.90;;;;;;5460678;26;20466;-64
2024/04/09 03:53:29;;;;;;;10.47;4.27;;;17.00;99.90;;;;;;5459538;26;21459;-68
2024/04/09 03:55:56;;;;;;;8.53;4.00;;;17.00;99.90;;;;;;5458400;26;20514;-67
2024/04/09 03:58:26;;;;;;;9.40;4.53;;;17.00;99.90;;;;;;5458935;26;20292;-66
2024/04/09 04:01:02;;;;;;;10.03;3.87;;;17.00;99.90;;;;;;5458392;26;21125;-66
2024/04/09 04:03:30;;;;;;;7.37;3.50;;;16.90;99.90;;;;;;5426451;26;20575;-68
2024/04/09 04:05:57;;;;;;;9.47;4.63;;;16.90;99.90;;;;;;5458820;26;20617;-67
2024/04/09 04:08:29;;;;;;;8.47;4.40;;;16.90;99.90;;;;;;5459487;26;20445;-67
2024/04/09 04:10:58;;;;;;;8.00;3.60;;;16.80;99.90;;;;;;5460167;26;20462;-65
2024/04/09 04:13:26;;;;;;;8.50;3.40;;;16.80;99.90;;;;;;5459310;26;20569;-67
2024/04/09 04:16:05;;;;;;;5.73;2.43;;;16.80;99.90;;;;;;5458260;26;20455;-65
2024/04/09 04:18:37;;;;;;;6.10;2.90;;;16.80;99.90;;;;;;5458112;26;20526;-64
2024/04/09 04:21:07;;;;;;;6.07;2.80;;;16.80;99.90;;;;;;5459083;26;20850;-64
2024/04/09 04:23:33;;;;;;;5.87;2.70;;;16.80;99.90;;;;;;5458183;26;21875;-68
2024/04/09 04:26:08;;;;;;;6.87;2.90;;;16.80;99.90;;;;;;5459287;26;20452;-66
2024/04/09 04:28:37;;;;;;;7.27;3.13;;;16.80;99.90;;;;;;5460262;26;20544;-64
2024/04/09 04:31:08;;;;;;;10.50;3.20;;;16.80;99.90;;;;;;5457013;26;21022;-65
2024/04/09 04:33:34;;;;;;;12.13;2.70;;;16.80;99.90;;;;;;5459540;26;20461;-65
2024/04/09 04:36:00;;;;;;;6.40;2.67;;;16.70;99.90;;;;;;5458671;26;20511;-64
2024/04/09 04:38:26;;;;;;;6.67;3.00;;;16.70;99.90;;;;;;5456851;26;20471;-67
2024/04/09 04:40:52;;;;;;;7.30;2.70;;;16.70;99.90;;;;;;5458793;26;20276;-68
2024/04/09 04:43:18;;;;;;;6.43;3.00;;;16.70;99.90;;;;;;5458996;26;20306;-66
2024/04/09 04:45:45;;;;;;;4.63;2.27;;;16.70;99.90;;;;;;5459584;26;20232;-67
2024/04/09 04:48:12;;;;;;;14.23;3.80;;;16.60;99.90;;;;;;5455508;26;20475;-64
2024/04/09 04:50:38;;;;;;;7.20;3.13;;;16.60;99.90;;;;;;5449222;26;20460;-68
2024/04/09 04:53:05;;;;;;;6.17;1.87;;;16.60;99.90;;;;;;5459344;26;20595;-68
2024/04/09 04:55:32;;;;;;;7.93;2.40;;;16.60;99.90;;;;;;5459932;26;21429;-67
2024/04/09 04:57:59;;;;;;;11.40;2.70;;;16.60;99.90;;;;;;5457789;26;20599;-67
2024/04/09 05:00:26;;;;;;;6.20;3.37;;;16.60;99.90;;;;;;5458390;26;20548;-66
2024/04/09 05:02:51;;;;;;;11.90;4.40;;;16.40;99.90;;;;;;5457325;26;20486;-66
2024/04/09 05:05:17;;;;;;;6.77;2.90;;;16.40;99.90;;;;;;5458848;26;20447;-68
2024/04/09 05:07:43;;;;;;;8.23;3.17;;;16.50;99.90;;;;;;5458816;26;20308;-65
2024/04/09 05:10:12;;;;;;;8.07;3.57;;;16.40;99.90;;;;;;5459217;26;20230;-67
2024/04/09 05:12:39;;;;;;;6.97;2.77;;;16.40;99.90;;;;;;5457400;26;20289;-68
2024/04/09 05:15:06;;;;;;;8.00;2.43;;;16.50;99.90;;;;;;5459583;26;20489;-67
2024/04/09 05:17:32;;;;;;;7.97;2.50;;;16.50;99.90;;;;;;5454065;26;20466;-68
2024/04/09 05:19:58;;;;;;;5.17;2.73;;;16.50;99.90;;;;;;5461498;26;20863;-67
2024/04/09 05:22:24;;;;;;;6.97;3.07;;;16.40;99.90;;;;;;5457890;26;20237;-65
2024/04/09 05:24:51;;;;;;;8.13;2.30;;;16.40;99.90;;;;;;5458781;26;20715;-67
2024/04/09 05:27:17;;;;;;;7.83;2.80;;;16.40;99.90;;;;;;5456263;26;20498;-67
2024/04/09 05:29:43;;;;;;;6.40;2.67;;;16.40;99.90;;;;;;5458488;26;20454;-65
2024/04/09 05:32:09;;;;;;;8.17;2.93;;;16.40;99.90;;;;;;5458494;26;21394;-65
2024/04/09 05:34:35;;;;;;;5.37;2.80;;;16.30;99.90;;;;;;5426801;26;20271;-68
2024/04/09 05:37:00;;;;;;;8.37;4.33;;;16.30;99.90;;;;;;5459011;26;20453;-66
2024/04/09 05:39:26;;;;;;;7.20;3.60;;;16.30;99.90;;;;;;5457213;26;20301;-66
2024/04/09 05:41:52;;;;;;;4.83;2.33;;;16.30;99.90;;;;;;5456903;26;20292;-64
2024/04/09 05:44:18;;;;;;;7.90;3.40;;;16.20;99.90;;;;;;5456866;26;20382;-64
2024/04/09 05:46:45;;;;;;;6.30;3.33;;;16.10;99.90;;;;;;5459416;26;20240;-64
2024/04/09 05:49:10;;;;;;;6.90;2.80;;;16.10;99.90;;;;;;5457152;26;20295;-67
2024/04/09 05:51:37;;;;;;;6.70;2.60;;;16.00;99.90;;;;;;5458518;26;20463;-65
2024/04/09 05:54:03;;;;;;;6.90;3.00;;;15.90;99.90;;;;;;5459371;26;20789;-68
2024/04/09 05:56:29;;;;;;;4.20;2.70;;;15.90;99.90;;;;;;5456662;26;21167;-66
2024/04/09 05:58:54;;;;;;;4.43;2.83;;;15.90;99.90;;;;;;5460017;26;20450;-66
2024/04/09 06:01:20;;;;;;;6.57;3.00;;;15.90;99.90;;;;;;5458007;26;20284;-68
2024/04/09 06:03:46;;;;;;;6.27;3.10;;;15.90;99.90;;;;;;5455019;26;20319;-66
2024/04/09 06:06:11;;;;;;;6.90;3.10;;;15.90;99.90;;;;;;5455630;26;20225;-69
2024/04/09 06:08:37;;;;;;;6.07;2.63;;;15.90;99.90;;;;;;5455843;26;20240;-65
2024/04/09 06:11:03;;;;;;;6.00;2.53;;;15.90;99.90;;;;;;5458495;26;20350;-68
2024/04/09 06:13:29;;;;;;;5.17;2.40;;;15.90;99.90;;;;;;5457579;26;20275;-68
2024/04/09 06:15:55;;;;;;;5.03;2.37;;;15.90;99.90;;;;;;5457514;26;20455;-69
2024/04/09 06:18:21;;;;;;;3.10;2.13;;;15.90;99.90;;;;;;5457263;26;20577;-66
2024/04/09 06:20:46;;;;;;;4.00;2.50;;;15.90;99.90;;;;;;5457417;26;20514;-67
2024/04/09 06:23:12;;;;;;;3.73;1.80;;;15.90;99.90;;;;;;5423833;26;20650;-66
2024/04/09 06:25:39;;;;;;;3.83;2.30;;;15.90;99.90;;;;;;5455382;26;20282;-67
2024/04/09 06:28:05;;;;;;;4.70;2.47;;;15.90;99.90;;;;;;5454953;26;20270;-65
2024/04/09 06:30:31;;;;;;;4.10;1.67;;;15.90;99.90;;;;;;5451238;26;20452;-66
2024/04/09 06:32:57;;;;;;;6.30;2.43;;;15.80;99.90;;;;;;5455581;26;20564;-68
2024/04/09 06:35:23;;;;;;;3.10;2.20;;;15.80;99.90;;;;;;5456387;26;20234;-65
2024/04/09 06:37:48;;;;;;;3.20;1.80;;;15.80;99.90;;;;;;5420106;26;20818;-66
2024/04/09 06:40:14;;;;;;;3.80;2.20;;;15.80;99.90;;;;;;5456407;26;20242;-70
2024/04/09 06:42:40;;;;;;;2.10;1.90;;;15.80;99.90;;;;;;5455127;26;20280;-72
2024/04/09 06:45:07;;;;;;;3.07;1.80;;;15.90;99.90;;;;;;5457362;26;20676;-72
2024/04/09 06:47:32;;;;;;;5.20;2.20;;;15.80;99.90;;;;;;5456787;26;20245;-70
2024/04/09 06:49:58;;;;;;;3.33;1.70;;;15.80;99.90;;;;;;5455453;26;20591;-69
2024/04/09 06:52:24;;;;;;;1.73;1.63;;;15.80;99.90;;;;;;5454021;26;20342;-69
2024/04/09 06:54:50;;;;;;;3.63;2.17;;;15.80;99.90;;;;;;5462144;26;20233;-70
2024/04/09 06:57:15;;;;;;;2.47;1.70;;;15.90;99.90;;;;;;5426945;26;20499;-72
2024/04/09 06:59:41;;;;;;;4.23;1.90;;;15.80;99.90;;;;;;5460098;26;20240;-72
2024/04/09 07:02:08;;;;;;;2.37;1.67;;;15.70;99.90;;;;;;5458969;26;20232;-71
2024/04/09 07:04:34;;;;;;;3.10;1.80;;;15.70;99.90;;;;;;5458616;26;20263;-69
2024/04/09 07:06:59;;;;;;;2.17;1.47;;;15.60;99.90;;;;;;5460048;26;20462;-70
2024/04/09 07:09:26;;;;;;;2.13;1.67;;;15.40;99.90;;;;;;5459713;26;20881;-72
2024/04/09 07:11:52;;;;;;;2.83;1.50;;;15.40;99.90;;;;;;5461133;26;20846;-73
2024/04/09 07:14:18;;;;;;;2.70;2.33;;;15.30;99.90;;;;;;5458041;26;20454;-72
2024/04/09 07:16:44;;;;;;;2.20;2.00;;;15.30;99.90;;;;;;5460626;26;20241;-71
2024/04/09 07:19:10;;;;;;;2.27;1.60;;;15.20;99.90;;;;;;5459683;26;20754;-71
2024/04/09 07:21:36;;;;;;;2.20;2.00;;;15.20;99.90;;;;;;5460107;26;20464;-72
2024/04/09 07:24:03;;;;;;;2.63;1.90;;;15.20;99.90;;;;;;5460854;26;20939;-70
2024/04/09 07:26:29;;;;;;;6.10;1.87;;;15.20;99.90;;;;;;5398093;26;20515;-71
2024/04/09 07:28:54;;;;;;;2.40;2.20;;;15.20;99.90;;;;;;5460698;26;20789;-75
2024/04/09 07:31:21;;;;;;;4.60;1.93;;;15.20;99.90;;;;;;5459002;26;21501;-70
2024/04/09 07:33:47;;;;;;;2.17;1.80;;;15.10;99.90;;;;;;5460795;26;20576;-69
2024/04/09 07:36:13;;;;;;;3.80;2.07;;;15.00;99.90;;;;;;5459337;26;20813;-70
2024/04/09 07:38:40;;;;;;;5.77;1.97;;;14.90;99.90;;;;;;5460147;26;20501;-71
2024/04/09 07:41:05;;;;;;;2.90;2.23;;;14.80;99.90;;;;;;5459498;26;20447;-71
2024/04/09 07:43:31;;;;;;;1.87;1.70;;;14.60;99.90;;;;;;5460064;26;20564;-73
2024/04/09 07:45:58;;;;;;;2.77;1.60;;;14.50;99.90;;;;;;5459185;26;20237;-69
2024/04/09 07:48:25;;;;;;;3.60;1.70;;;14.40;99.90;;;;;;5458660;26;20499;-71
2024/04/09 07:50:54;;;;;;;2.60;1.97;;;14.30;99.90;;;;;;5428302;26;20571;-72
2024/04/09 07:53:21;;;;;;;1.90;1.20;;;14.30;99.90;;;;;;5458466;26;20522;-72
2024/04/09 07:55:47;;;;;;;2.90;1.70;;;14.20;99.90;;;;;;5459410;26;20460;-70
2024/04/09 07:58:13;;;;;;;3.73;1.23;;;14.10;99.90;;;;;;5459657;26;20900;-74
2024/04/09 08:00:39;;;;;;;3.00;1.30;;;14.00;99.90;;;;;;5458518;26;20883;-74
2024/04/09 08:03:05;;;;;;;3.47;1.27;;;13.80;99.90;;;;;;5459299;26;20455;-71
2024/04/09 08:05:31;;;;;;;1.57;1.10;;;13.80;99.90;;;;;;5458940;26;20567;-68
2024/04/09 08:07:56;;;;;;;3.00;1.40;;;13.80;99.90;;;;;;5458899;26;20471;-71
2024/04/09 08:10:22;;;;;;;4.20;1.80;;;13.90;99.90;;;;;;5460216;26;20516;-72
2024/04/09 08:12:54;;;;;;;6.43;1.60;;;13.80;99.90;;;;;;5426818;26;20284;-71
2024/04/09 08:15:23;;;;;;;2.13;1.10;;;13.80;99.90;;;;;;5459017;26;20329;-70
2024/04/09 08:17:49;;;;;;;2.17;1.70;;;13.70;99.90;;;;;;5427460;26;21271;-70
2024/04/09 08:20:16;;;;;;;2.30;1.27;;;13.70;99.90;;;;;;5459641;26;20508;-74
2024/04/09 08:22:42;;;;;;;3.17;1.30;;;13.70;99.90;;;;;;5427416;26;20570;-73
2024/04/09 08:25:08;;;;;;;2.03;1.03;;;13.60;99.90;;;;;;5426030;26;20460;-69
2024/04/09 08:27:36;;;;;;;3.27;1.60;;;13.60;99.90;;;;;;5458646;26;20444;-68
2024/04/09 08:30:23;;;;;;;4.90;1.47;;;13.60;99.90;;;;;;5458348;26;20461;-70
2024/04/09 08:32:53;;;;;;;3.70;1.53;;;13.60;99.90;;;;;;5458310;26;20575;-71
2024/04/09 08:35:19;;;;;;;3.67;1.50;;;13.50;99.90;;;;;;5425034;26;21345;-72
2024/04/09 08:37:46;;;;;;;2.37;1.30;;;13.60;99.90;;;;;;5459434;26;21061;-72
2024/04/09 08:40:17;;;;;;;1.47;1.23;;;13.60;99.90;;;;;;5458607;26;20523;-68
2024/04/09 08:42:45;;;;;;;2.40;1.47;;;13.60;99.90;;;;;;5459754;26;20525;-72
2024/04/09 08:45:15;;;;;;;3.43;1.60;;;13.60;99.90;;;;;;5457650;26;21032;-70
2024/04/09 08:47:41;;;;;;;2.60;1.50;;;13.50;99.90;;;;;;5457921;26;20446;-73
2024/04/09 08:50:07;;;;;;;3.50;1.40;;;13.50;99.90;;;;;;5457775;26;20475;-70
2024/04/09 08:52:33;;;;;;;1.87;1.50;;;13.40;99.90;;;;;;5459629;26;20529;-71
2024/04/09 08:55:01;;;;;;;2.00;1.30;;;13.40;99.90;;;;;;5457001;26;20454;-74
2024/04/09 08:57:30;;;;;;;6.50;1.60;;;13.40;99.90;;;;;;5458452;26;20544;-73
2024/04/09 08:59:57;;;;;;;2.30;1.53;;;13.40;99.90;;;;;;5457467;26;20597;-72
2024/04/09 09:02:23;;;;;;;2.30;1.70;;;13.40;99.90;;;;;;5459103;26;20454;-71
2024/04/09 09:04:50;;;;;;;1.90;1.60;;;13.40;99.90;;;;;;5426240;26;21093;-71
2024/04/09 09:07:22;;;;;;;3.17;1.70;;;13.50;99.90;;;;;;5458176;26;20459;-73
2024/04/09 09:09:48;;;;;;;7.10;2.00;;;13.60;99.90;;;;;;5458001;26;20540;-70
2024/04/09 09:12:15;;;;;;;2.43;1.50;;;13.60;99.90;;;;;;5457095;26;20451;-74
2024/04/09 09:14:54;;;;;;;2.03;1.30;;;13.60;99.90;;;;;;5458145;26;20517;-68
2024/04/09 09:17:20;;;;;;;3.90;1.47;;;13.70;99.90;;;;;;5424967;26;20513;-72
2024/04/09 09:19:55;;;;;;;4.47;1.53;;;13.70;99.90;;;;;;5458913;26;20592;-70
2024/04/09 09:22:21;;;;;;;1.87;1.20;;;13.70;99.90;;;;;;5458463;26;20441;-74
2024/04/09 09:24:47;;;;;;;4.43;1.10;;;13.80;99.90;;;;;;5458299;26;20565;-71
2024/04/09 09:27:12;;;;;;;2.13;1.50;;;13.90;99.90;;;;;;5457558;26;20267;-71
2024/04/09 09:29:38;;;;;;;5.33;1.60;;;13.90;99.90;;;;;;5457387;26;20797;-72
2024/04/09 09:32:04;;;;;;;2.70;1.60;;;13.90;99.90;;;;;;5425432;26;20237;-72
2024/04/09 09:34:43;;;;;;;1.80;1.47;;;13.90;99.90;;;;;;5457310;26;20715;-69
2024/04/09 09:37:12;;;;;;;2.47;1.50;;;13.90;99.90;;;;;;5423802;26;20457;-70
2024/04/09 09:39:39;;;;;;;3.03;1.33;;;13.80;99.90;;;;;;5457230;26;20455;-73
2024/04/09 09:42:06;;;;;;;2.10;1.60;;;13.80;99.90;;;;;;5456852;26;20576;-70
2024/04/09 09:44:37;;;;;;;2.83;1.20;;;13.70;99.90;;;;;;5426518;26;20564;-69
2024/04/09 09:47:03;;;;;;;1.50;1.10;;;13.60;99.90;;;;;;5484053;26;20567;-72
2024/04/09 09:49:30;;;;;;;4.50;1.17;;;13.50;99.90;;;;;;5457306;26;20847;-69
2024/04/09 09:51:56;;;;;;;3.47;1.00;;;13.40;99.90;;;;;;5456143;26;20471;-69
2024/04/09 09:54:25;;;;;;;2.23;1.03;;;13.30;99.90;;;;;;5457717;26;20576;-73
2024/04/09 09:57:04;;;;;;;2.80;1.10;;;13.30;99.90;;;;;;5456152;26;20465;-69
2024/04/09 09:59:36;;;;;;;1.67;1.00;;;13.20;99.90;;;;;;5459084;26;20518;-70
2024/04/09 10:02:04;;;;;;;1.73;0.80;;;13.10;99.90;;;;;;5457428;26;20458;-67
2024/04/09 10:04:29;;;;;;;2.70;1.10;;;13.10;99.90;;;;;;5457621;26;21347;-74
2024/04/09 10:07:00;;;;;;;3.23;0.80;;;13.00;99.90;;;;;;5455730;26;20467;-72
2024/04/09 10:09:49;;;;;;;3.10;1.10;;;13.00;99.90;;;;;;5425274;26;20241;-69
2024/04/09 10:12:28;;;;;;;2.37;0.80;;;13.00;99.90;;;;;;5457751;26;20565;-70
2024/04/09 10:15:15;;;;;;;1.70;1.10;;;13.10;99.90;;;;;;5456726;26;20921;-74
2024/04/09 10:17:49;;;;;;;2.77;1.30;;;13.20;99.90;;;;;;5455939;26;20534;-74
2024/04/09 10:20:31;;;;;;;2.90;1.10;;;13.40;99.90;;;;;;5457805;26;22113;-67
2024/04/09 10:23:01;;;;;;;1.93;1.17;;;13.50;99.90;;;;;;5456453;26;20933;-70
2024/04/09 10:25:41;;;;;;;4.43;1.17;;;13.60;99.90;;;;;;5457130;26;20467;-70
2024/04/09 10:28:08;;;;;;;1.70;1.00;;;13.70;99.90;;;;;;5424548;26;20455;-73
2024/04/09 10:30:37;;;;;;;3.87;1.30;;;14.00;99.90;;;;;;5457057;26;21068;-71
2024/04/09 10:33:04;;;;;;;4.80;1.27;;;14.20;99.90;;;;;;5456790;26;21107;-72
2024/04/09 10:35:30;;;;;;;2.77;1.17;;;14.40;99.90;;;;;;5456400;26;20502;-68
2024/04/09 10:37:58;;;;;;;1.90;0.70;;;14.60;99.90;;;;;;5456346;26;20483;-72
2024/04/09 10:40:24;;;;;;;4.07;1.20;;;14.70;99.90;;;;;;5457724;26;20510;-73
2024/04/09 10:42:51;;;;;;;4.73;1.10;;;14.80;99.90;;;;;;5455137;26;20664;-72
2024/04/09 10:45:18;;;;;;;4.00;1.10;;;14.90;99.90;;;;;;5457527;26;20452;-70
2024/04/09 10:47:45;;;;;;;4.47;1.10;;;15.00;99.90;;;;;;5457479;26;20521;-70
2024/04/09 10:50:13;;;;;;;2.47;0.80;;;15.00;99.90;;;;;;5454377;26;20875;-68
2024/04/09 10:52:40;;;;;;;3.60;1.07;;;15.00;99.90;;;;;;5456126;26;20504;-72
2024/04/09 10:55:10;;;;;;;2.20;0.97;;;15.10;99.90;;;;;;5455528;26;20512;-71
2024/04/09 10:57:36;;;;;;;3.50;1.53;;;14.90;99.90;;;;;;5457287;26;20455;-70
2024/04/09 11:00:12;;;;;;;3.53;1.53;;;14.80;99.90;;;;;;5456823;26;20517;-73
2024/04/09 11:02:39;;;;;;;1.60;1.03;;;14.70;99.90;;;;;;5457788;26;20272;-70
2024/04/09 11:05:06;;;;;;;2.93;0.97;;;14.60;99.90;;;;;;5455061;26;20468;-70
2024/04/09 11:07:36;;;;;;;4.07;0.90;;;14.60;99.90;;;;;;5456611;26;20458;-73
2024/04/09 11:10:12;;;;;;;3.30;1.10;;;14.60;99.90;;;;;;5454948;26;20559;-72
2024/04/09 11:12:46;;;;;;;5.33;1.50;;;14.50;99.90;;;;;;5423697;26;20577;-67
2024/04/09 11:15:13;;;;;;;2.80;1.00;;;14.50;99.90;;;;;;5455970;26;20461;-69
2024/04/09 11:17:39;;;;;;;3.80;1.30;;;14.40;99.90;;;;;;5456328;26;21547;-72
2024/04/09 11:20:10;;;;;;;4.73;1.50;;;14.40;99.90;;;;;;5456075;26;21059;-72
2024/04/09 11:22:41;;;;;;;2.07;1.20;;;14.30;99.90;;;;;;5456733;26;20878;-71
2024/04/09 11:25:11;;;;;;;2.80;1.40;;;14.30;99.90;;;;;;5455599;26;20533;-70
2024/04/09 11:27:38;;;;;;;2.10;1.03;;;14.40;99.90;;;;;;5456121;26;20459;-69
2024/04/09 11:30:07;;;;;;;5.13;1.40;;;14.50;99.90;;;;;;5455880;26;21426;-73
2024/04/09 11:32:36;;;;;;;3.53;1.10;;;14.60;99.90;;;;;;5456506;26;20450;-72
2024/04/09 11:35:03;;;;;;;2.23;1.17;;;14.70;99.90;;;;;;5422350;26;20515;-71
2024/04/09 11:37:28;;;;;;;2.60;1.00;;;14.80;99.90;;;;;;5455787;26;20534;-70
2024/04/09 11:39:54;;;;;;;3.60;1.30;;;14.90;99.90;;;;;;5455638;26;20510;-68
2024/04/09 11:42:20;;;;;;;4.33;1.00;;;15.00;99.90;;;;;;5459023;26;20280;-71
2024/04/09 11:44:46;;;;;;;3.87;1.10;;;15.10;99.90;;;;;;5457964;26;20822;-72
2024/04/09 11:47:11;;;;;;;2.63;0.83;;;15.20;99.90;;;;;;5428295;26;20236;-69
2024/04/09 11:49:37;;;;;;;7.67;1.27;;;15.10;99.90;;;;;;5428868;26;20254;-73
2024/04/09 11:52:03;;;;;;;2.87;1.13;;;15.10;99.90;;;;;;5427179;26;20245;-73
2024/04/09 11:54:29;;;;;;;1.83;0.80;;;15.20;99.90;;;;;;5460532;26;20268;-75
2024/04/09 11:56:54;;;;;;;1.40;1.00;;;15.10;99.70;;;;;;5459502;26;20458;-72
2024/04/09 11:59:20;;;;;;;1.90;1.00;;;15.00;99.80;;;;;;5459925;26;20949;-72
2024/04/09 12:01:46;;;;;;;3.00;1.00;;;15.00;99.30;;;;;;5457591;26;20230;-68
2024/04/09 12:04:11;;;;;;;5.40;1.27;;;15.00;99.50;;;;;;5428021;26;20232;-69
2024/04/09 12:06:38;;;;;;;2.83;1.07;;;14.90;99.70;;;;;;5460272;26;20874;-74
2024/04/09 12:09:07;;;;;;;2.50;0.93;;;15.00;99.90;;;;;;5460332;26;20233;-70
2024/04/09 12:11:32;;;;;;;2.37;0.90;;;15.10;99.90;;;;;;5459355;26;20820;-71
2024/04/09 12:13:58;;;;;;;4.57;1.07;;;15.30;99.90;;;;;;5459704;26;20455;-74
2024/04/09 12:16:24;;;;;;;2.67;1.40;;;15.40;99.90;;;;;;5459910;26;20579;-74
2024/04/09 12:18:50;;;;;;;2.30;1.20;;;15.50;99.90;;;;;;5458592;26;20284;-73
2024/04/09 12:21:16;;;;;;;2.83;1.77;;;15.70;99.90;;;;;;5460659;26;20761;-75
2024/04/09 12:23:41;;;;;;;3.00;1.53;;;15.80;99.50;;;;;;5452796;26;20590;-75
2024/04/09 12:26:07;;;;;;;2.57;1.33;;;15.70;98.60;;;;;;5453155;26;20462;-71
2024/04/09 12:28:33;;;;;;;5.50;1.20;;;15.60;98.80;;;;;;5424843;26;20749;-70
2024/04/09 12:30:58;;;;;;;5.77;1.40;;;15.50;99.60;;;;;;5457198;26;20280;-70
2024/04/09 12:33:24;;;;;;;3.67;1.27;;;15.50;99.90;;;;;;5457335;26;20249;-71
2024/04/09 12:35:50;;;;;;;2.70;1.27;;;15.50;99.80;;;;;;5424002;26;20321;-68
2024/04/09 12:38:15;;;;;;;2.70;0.90;;;15.50;99.90;;;;;;5457480;26;20230;-71
2024/04/09 12:40:41;;;;;;;4.53;1.30;;;15.50;99.90;;;;;;5455316;26;20224;-70
2024/04/09 12:43:07;;;;;;;5.90;1.40;;;15.60;99.90;;;;;;5454522;26;20260;-72